Eurika — LYRZ — position and weather

sailwx.info

Track history (hours):
 
Tides and Currents Weather Stations Pressure Air Temp Water Temp Dewpoint Dewpoint Depression Visibility Wind Speed Wind Dir Waves Ship Positions

Eurika

Last reported at 2014-Sep-28 04:18 UTC. Time now 2014-Oct-02 08:39 UTC.
Position N 42°27' E 006°21'.

Length 79 m; draft 3.2 m.

MMSI: 277335000.

Date/timePositionNaut miles runAvg speedWind from/ knotsBaromVisibWave heightAir tempDewpointWater temp
2014-Sep-28 04:18N 42°27' E 006°21'6 8.2
2014-Sep-28 03:33N 42°32' E 006°15'7 6.9
2014-Sep-28 02:33N 42°36' E 006°08'7 6.5
2014-Sep-28 01:29N 42°41' E 006°01'6 6.4
2014-Sep-28 00:33N 42°44' E 005°54'7 6.6
2014-Sep-27 23:33N 42°48' E 005°47'6 6.4
2014-Sep-27 22:33N 42°52' E 005°40'7 6.4
2014-Sep-27 21:24N 42°57' E 005°32'22 6.9
2014-Sep-27 18:15N 43°12' E 005°11'5 7.0
2014-Sep-27 17:30N 43°15' E 005°05'7 7.6
2014-Sep-27 16:33N 43°20' E 004°58'7 7.3
2014-Sep-27 15:33N 43°23' E 004°49'1 0.2
2014-Sep-27 13:10N 43°23' E 004°48'0 0.0
2014-Sep-26 20:04N 43°23' E 004°48'0 0.0
2014-Sep-26 19:19N 43°23' E 004°48'0 0.0
2014-Sep-26 18:16N 43°23' E 004°48'0 0.0
2014-Sep-26 17:33N 43°23' E 004°48'0 0.0
2014-Sep-26 16:25N 43°23' E 004°48'0 0.0
2014-Sep-26 15:32N 43°23' E 004°48'0 0.0
2014-Sep-26 14:32N 43°23' E 004°48'0 0.0
2014-Sep-26 08:08N 43°23' E 004°48'4 7.4
2014-Sep-26 07:33N 43°26' E 004°44'  
2014-Sep-18 07:33N 43°35' E 004°40'14 4.9
2014-Sep-18 04:33N 43°24' E 004°53'  
Track history (hours):
 
Tides and Currents Weather Stations Pressure Air Temp Water Temp Dewpoint Dewpoint Depression Visibility Wind Speed Wind Dir Waves Ship Positions

Eurika

Last reported at 2014-Sep-28 04:18 UTC. Time now 2014-Oct-02 08:39 UTC.
Position N 42°27' E 006°21'.

Length 79 m; draft 3.2 m.

MMSI: 277335000.

Date/timePositionNaut miles runAvg speedWind from/ knotsBaromVisibWave heightAir tempDewpointWater temp
2014-Sep-28 04:18N 42°27' E 006°21'6 8.2
2014-Sep-28 03:33N 42°32' E 006°15'7 6.9
2014-Sep-28 02:33N 42°36' E 006°08'7 6.5
2014-Sep-28 01:29N 42°41' E 006°01'6 6.4
2014-Sep-28 00:33N 42°44' E 005°54'7 6.6
2014-Sep-27 23:33N 42°48' E 005°47'6 6.4
2014-Sep-27 22:33N 42°52' E 005°40'7 6.4
2014-Sep-27 21:24N 42°57' E 005°32'22 6.9
2014-Sep-27 18:15N 43°12' E 005°11'5 7.0
2014-Sep-27 17:30N 43°15' E 005°05'7 7.6
2014-Sep-27 16:33N 43°20' E 004°58'7 7.3
2014-Sep-27 15:33N 43°23' E 004°49'1 0.2
2014-Sep-27 13:10N 43°23' E 004°48'0 0.0
2014-Sep-26 20:04N 43°23' E 004°48'0 0.0
2014-Sep-26 19:19N 43°23' E 004°48'0 0.0
2014-Sep-26 18:16N 43°23' E 004°48'0 0.0
2014-Sep-26 17:33N 43°23' E 004°48'0 0.0
2014-Sep-26 16:25N 43°23' E 004°48'0 0.0
2014-Sep-26 15:32N 43°23' E 004°48'0 0.0
2014-Sep-26 14:32N 43°23' E 004°48'0 0.0
2014-Sep-26 08:08N 43°23' E 004°48'4 7.4
2014-Sep-26 07:33N 43°26' E 004°44'  
2014-Sep-18 07:33N 43°35' E 004°40'14 4.9
2014-Sep-18 04:33N 43°24' E 004°53'  

Dump ship's entire track history